.
WxDataArchive / Data Records for 2010-04-11
2010-04-10 April 2010 2010-04-12

Data Records for Sunday, 11 April 2010

Time	Temp	Chill	HIndex	Humid	Dewpt	 Wind 	HiWind	WindDir	Rain 	Barom 
-----	----	-----	------	-----	-----	------	------	-------	-----	----- 
00:00	59.6	59.6	59.6	50	40.9	1	3	248	0.00	30.190 
00:05	59.5	59.5	59.5	50	40.8	1	5	248	0.00	30.190 
00:10	59.2	59.2	59.2	51	41.1	1	4	248	0.00	30.190 
00:15	59.0	59.0	59.0	51	40.9	1	5	248	0.00	30.183 
00:20	59.0	59.0	59.0	52	41.4	1	4	248	0.00	30.183 
00:25	59.0	59.0	59.0	52	41.4	1	6	270	0.00	30.183 
00:30	59.0	59.0	59.0	52	41.4	1	4	248	0.00	30.183 
00:35	58.9	58.9	58.9	52	41.3	1	3	248	0.00	30.183 
00:40	58.9	58.9	58.9	52	41.3	1	7	225	0.00	30.183 
00:45	58.7	58.7	58.7	52	41.1	1	4	248	0.00	30.189 
00:50	58.6	58.6	58.6	53	41.5	1	4	248	0.00	30.189 
00:55	58.4	58.4	58.4	53	41.3	1	4	225	0.00	30.189 
01:00	58.4	58.4	58.4	53	41.3	1	4	225	0.00	30.191 
01:05	58.3	58.3	58.3	53	41.2	0	2	225	0.00	30.191 
01:10	58.3	58.3	58.3	53	41.2	1	3	225	0.00	30.191 
01:15	58.1	58.1	58.1	53	41.1	1	4	248	0.00	30.191 
01:20	58.1	58.1	58.1	54	41.5	1	4	248	0.00	30.191 
01:25	58.0	58.0	58.0	54	41.4	1	3	248	0.00	30.191 
01:30	58.0	58.0	58.0	54	41.4	1	3	248	0.00	30.198 
01:35	57.8	57.8	57.8	54	41.3	0	2	248	0.00	30.198 
01:40	57.6	57.6	57.6	54	41.1	0	2	248	0.00	30.198 
01:45	57.3	57.3	57.3	54	40.8	1	2	248	0.00	30.206 
01:50	57.2	57.2	57.2	55	41.2	1	2	248	0.00	30.206 
01:55	57.0	57.0	57.0	55	41.0	0	1	248	0.00	30.206 
02:00	56.7	56.7	56.7	56	41.2	0	1	248	0.00	30.208 
02:05	56.5	56.5	56.5	56	41.0	0	0	---	0.00	30.208 
02:10	56.2	56.2	56.2	57	41.2	0	0	---	0.00	30.208 
02:15	55.9	55.9	55.9	57	40.9	0	0	---	0.00	30.211 
02:20	55.4	55.4	55.4	58	40.9	0	0	---	0.00	30.211 
02:25	55.1	55.1	55.1	58	40.6	0	0	---	0.00	30.211 
02:30	54.7	54.7	54.7	59	40.7	0	0	---	0.00	30.218 
02:35	54.2	54.2	54.2	60	40.6	0	0	---	0.00	30.218 
02:40	53.8	53.8	53.8	61	40.7	0	0	---	0.00	30.218 
02:45	53.3	53.3	53.3	62	40.6	0	0	---	0.00	30.222 
02:50	52.8	52.8	52.8	63	40.6	0	0	---	0.00	30.222 
02:55	52.5	52.5	52.5	65	41.1	0	0	---	0.00	30.222 
03:00	52.0	52.0	52.0	66	41.0	0	0	---	0.00	30.226 
03:05	51.9	51.9	51.9	66	40.9	0	0	---	0.00	30.226 
03:10	51.9	51.9	51.9	67	41.3	0	0	---	0.00	30.226 
03:15	51.9	51.9	51.9	67	41.3	0	0	---	0.00	30.225 
03:20	51.9	51.9	51.9	68	41.7	0	0	---	0.00	30.225 
03:25	51.9	51.9	51.9	68	41.7	0	0	---	0.00	30.225 
03:30	51.9	51.9	51.9	68	41.7	0	0	---	0.00	30.224 
03:35	51.9	51.9	51.9	67	41.3	0	0	---	0.00	30.224 
03:40	51.9	51.9	51.9	67	41.3	0	0	---	0.00	30.224 
03:45	51.9	51.9	51.9	67	41.3	0	0	---	0.00	30.225 
03:50	52.0	52.0	52.0	67	41.4	0	0	---	0.00	30.225 
03:55	52.0	52.0	52.0	67	41.4	0	0	---	0.00	30.225 
04:00	51.9	51.9	51.9	67	41.3	0	0	---	0.00	30.224 
04:05	51.6	51.6	51.6	67	41.0	0	0	---	0.00	30.224 
04:10	51.4	51.4	51.4	69	41.6	0	0	---	0.00	30.224 
04:15	51.1	51.1	51.1	69	41.3	0	0	---	0.00	30.224 
04:20	50.8	50.8	50.8	70	41.4	0	0	---	0.00	30.224 
04:25	50.5	50.5	50.5	70	41.1	0	0	---	0.00	30.224 
04:30	50.4	50.4	50.4	71	41.4	0	0	---	0.00	30.225 
04:35	50.2	50.2	50.2	72	41.5	0	0	---	0.00	30.225 
04:40	50.2	50.2	50.2	73	41.9	0	0	---	0.00	30.225 
04:45	50.2	50.2	50.2	74	42.2	0	0	---	0.00	30.226 
04:50	50.1	50.1	50.1	74	42.1	0	0	---	0.00	30.226 
04:55	50.1	50.1	50.1	74	42.1	0	0	---	0.00	30.226 
05:00	50.1	50.1	50.1	74	42.1	0	0	---	0.00	30.225 
05:05	50.1	50.1	50.1	75	42.5	0	0	---	0.00	30.225 
05:10	50.1	50.1	50.1	74	42.1	0	0	---	0.00	30.225 
05:15	50.1	50.1	50.1	74	42.1	0	0	---	0.00	30.228 
05:20	49.9	49.9	49.9	74	41.9	0	0	---	0.00	30.228 
05:25	49.9	49.9	49.9	75	42.3	0	0	---	0.00	30.228 
05:30	50.1	50.1	50.1	75	42.5	0	0	---	0.00	30.228 
05:35	50.1	50.1	50.1	75	42.5	0	1	248	0.00	30.228 
05:40	50.2	50.2	50.2	74	42.2	0	0	---	0.00	30.228 
05:45	50.2	50.2	50.2	74	42.2	0	0	---	0.00	30.230 
05:50	50.1	50.1	50.1	74	42.1	0	0	---	0.00	30.230 
05:55	50.1	50.1	50.1	74	42.1	0	0	---	0.00	30.230 
06:00	49.9	49.9	49.9	74	41.9	0	0	---	0.00	30.234 
06:05	49.8	49.8	49.8	75	42.2	0	0	---	0.00	30.234 
06:10	49.6	49.6	49.6	75	42.0	0	1	248	0.00	30.234 
06:15	49.9	49.9	49.9	76	42.6	0	1	248	0.00	30.247 
06:20	50.2	50.2	50.2	75	42.6	0	0	---	0.00	30.247 
06:25	50.5	50.5	50.5	73	42.2	0	0	---	0.00	30.247 
06:30	50.5	50.5	50.5	73	42.2	0	0	---	0.00	30.253 
06:35	50.5	50.5	50.5	74	42.5	0	0	---	0.00	30.253 
06:40	50.4	50.4	50.4	74	42.4	0	0	---	0.00	30.253 
06:45	50.2	50.2	50.2	74	42.2	0	0	---	0.00	30.256 
06:50	49.9	49.9	49.9	75	42.3	0	0	---	0.00	30.256 
06:55	49.8	49.8	49.8	75	42.2	0	0	---	0.00	30.256 
07:00	49.6	49.6	49.6	76	42.3	0	0	---	0.00	30.258 
07:05	49.4	49.4	49.4	76	42.2	0	0	---	0.00	30.258 
07:10	49.1	49.1	49.1	77	42.2	0	0	---	0.00	30.258 
07:15	48.9	48.9	48.9	78	42.3	0	0	---	0.00	30.273 
07:20	48.8	48.8	48.8	79	42.6	0	0	---	0.00	30.273 
07:25	48.8	48.8	48.8	80	42.9	0	1	248	0.00	30.273 
07:30	49.4	49.4	49.4	77	42.5	1	4	90	0.00	30.278 
07:35	50.5	50.5	50.5	74	42.5	2	6	135	0.00	30.278 
07:40	51.1	51.1	51.1	73	42.7	1	5	135	0.00	30.278 
07:45	51.6	51.6	51.6	71	42.5	1	5	45	0.00	30.284 
07:50	51.9	51.9	51.9	71	42.8	2	6	22	0.00	30.284 
07:55	52.0	52.0	52.0	70	42.5	2	6	90	0.00	30.284 
08:00	52.0	52.0	52.0	70	42.5	2	5	112	0.00	30.294 
08:05	52.0	52.0	52.0	71	42.9	1	5	112	0.00	30.294 
08:10	52.0	52.0	52.0	71	42.9	1	8	45	0.00	30.294 
08:15	52.0	52.0	52.0	71	42.9	2	10	112	0.00	30.307 
08:20	52.0	52.0	52.0	72	43.3	1	4	112	0.00	30.307 
08:25	52.2	52.2	52.2	71	43.1	2	7	90	0.00	30.307 
08:30	52.3	52.3	52.3	71	43.2	2	6	112	0.00	30.308 
08:35	52.5	52.5	52.5	70	43.0	4	10	90	0.00	30.308 
08:40	52.6	52.6	52.6	70	43.1	2	7	112	0.00	30.308 
08:45	52.8	52.8	52.8	68	42.5	5	11	112	0.00	30.307 
08:50	52.5	52.5	52.5	68	42.2	5	11	112	0.00	30.307 
08:55	52.5	52.5	52.5	69	42.6	2	5	112	0.00	30.307 
09:00	52.8	52.8	52.8	68	42.5	4	6	112	0.00	30.306 
09:05	52.9	52.9	52.9	69	43.0	4	9	90	0.00	30.306 
09:10	53.1	53.1	53.1	68	42.8	4	10	112	0.00	30.306 
09:15	53.2	53.2	53.2	66	42.1	4	14	90	0.00	30.318 
09:20	53.3	53.3	53.3	66	42.2	5	11	112	0.00	30.318 
09:25	53.5	53.5	53.5	64	41.6	5	10	112	0.00	30.318 
09:30	53.6	53.6	53.6	65	42.1	4	9	90	0.00	30.311 
09:35	53.6	53.6	53.6	64	41.7	5	10	90	0.00	30.311 
09:40	53.5	53.5	53.5	64	41.6	4	12	112	0.00	30.311 
09:45	53.3	53.3	53.3	65	41.8	4	10	90	0.00	30.316 
09:50	53.2	53.2	53.2	65	41.7	5	13	90	0.00	30.316 
09:55	53.2	53.2	53.2	65	41.7	4	9	90	0.00	30.316 
10:00	53.3	53.3	53.3	66	42.2	2	6	112	0.00	30.320 
10:05	53.5	53.5	53.5	64	41.6	3	6	112	0.00	30.320 
10:10	53.6	53.6	53.6	61	40.5	3	6	90	0.00	30.320 
10:15	53.8	53.8	53.8	56	38.5	5	13	112	0.00	30.313 
10:20	53.9	53.9	53.9	54	37.6	4	10	112	0.00	30.313 
10:25	53.9	53.9	53.9	53	37.2	4	7	90	0.00	30.313 
10:30	54.1	54.1	54.1	52	36.9	4	7	112	0.00	30.315 
10:35	54.2	54.2	54.2	51	36.5	3	10	90	0.00	30.315 
10:40	54.7	54.7	54.7	47	34.9	5	11	112	0.00	30.315 
10:45	55.3	55.3	55.3	46	34.9	4	10	112	0.00	30.325 
10:50	56.0	56.0	56.0	47	36.1	4	7	112	0.00	30.325 
10:55	56.6	56.6	56.6	47	36.6	4	11	112	0.00	30.325 
11:00	56.9	56.9	56.9	45	35.8	5	12	90	0.00	30.328 
11:05	56.9	56.9	56.9	44	35.2	5	10	90	0.00	30.328 
11:10	56.3	56.3	56.3	46	35.8	4	9	112	0.00	30.328 
11:15	56.2	56.2	56.2	45	35.1	4	9	112	0.00	30.326 
11:20	56.6	56.6	56.6	45	35.5	5	13	112	0.00	30.326 
11:25	56.3	56.3	56.3	44	34.7	5	12	90	0.00	30.326 
11:30	56.0	56.0	56.0	41	32.6	6	12	112	0.00	30.323 
11:35	56.0	56.0	56.0	41	32.6	5	11	112	0.00	30.323 
11:40	56.2	56.2	56.2	43	34.0	4	12	90	0.00	30.323 
11:45	56.3	56.3	56.3	44	34.7	5	13	90	0.00	30.321 
11:50	56.6	56.6	56.6	44	34.9	3	7	112	0.00	30.321 
11:55	56.6	56.6	56.6	44	34.9	5	11	112	0.00	30.321 
12:00	56.5	56.5	56.5	43	34.3	4	11	90	0.00	30.324 
12:05	56.6	56.6	56.6	44	34.9	5	10	90	0.00	30.324 
12:10	57.3	57.3	57.3	43	35.0	3	9	112	0.00	30.324 
12:15	58.1	58.1	58.1	42	35.1	3	7	112	0.00	30.327 
12:20	58.7	58.7	58.7	41	35.1	4	10	112	0.00	30.327 
12:25	59.3	59.3	59.3	41	35.6	2	6	90	0.00	30.327 
12:30	59.0	59.0	59.0	41	35.3	3	10	90	0.00	30.331 
12:35	58.4	58.4	58.4	40	34.2	3	7	112	0.00	30.331 
12:40	58.0	58.0	58.0	42	35.0	4	8	112	0.00	30.331 
12:45	58.1	58.1	58.1	44	36.3	2	6	90	0.00	30.326 
12:50	58.3	58.3	58.3	44	36.5	3	9	90	0.00	30.326 
12:55	59.2	59.2	59.2	44	37.3	3	9	90	0.00	30.326 
13:00	59.9	59.9	59.9	41	36.1	3	6	112	0.00	30.317 
13:05	60.4	60.4	60.4	41	36.6	2	7	112	0.00	30.317 
13:10	60.5	60.5	60.5	39	35.4	3	7	112	0.00	30.317 
13:15	60.7	60.7	60.7	42	37.5	4	11	112	0.00	30.312 
13:20	61.3	61.3	61.3	40	36.8	2	7	112	0.00	30.312 
13:25	61.8	61.8	61.8	39	36.6	2	6	90	0.00	30.312 
13:30	62.1	62.1	62.1	40	37.5	2	6	90	0.00	30.309 
13:35	62.1	62.1	62.1	40	37.5	4	7	112	0.00	30.309 
13:40	62.4	62.4	62.4	37	35.8	1	4	90	0.00	30.309 
13:45	62.6	62.6	62.6	38	36.6	2	6	90	0.00	30.310 
13:50	62.4	62.4	62.4	38	36.5	3	6	90	0.00	30.310 
13:55	62.0	62.0	62.0	42	38.6	3	6	90	0.00	30.310 
14:00	62.0	62.0	62.0	42	38.6	2	7	90	0.00	30.308 
14:05	62.3	62.3	62.3	40	37.7	3	6	112	0.00	30.308 
14:10	62.9	62.9	62.9	40	38.2	2	4	90	0.00	30.308 
14:15	63.2	63.2	63.2	45	41.5	1	5	68	0.00	30.311 
14:20	63.4	63.4	63.4	41	39.3	1	5	90	0.00	30.311 
14:25	63.4	63.4	63.4	42	39.9	2	6	90	0.00	30.311 
14:30	63.7	63.7	63.7	41	39.6	1	3	112	0.00	30.307 
14:35	64.2	64.2	64.2	42	40.6	2	7	112	0.00	30.307 
14:40	64.2	64.2	64.2	41	40.0	2	7	90	0.00	30.307 
14:45	64.0	64.0	64.0	41	39.8	3	7	90	0.00	30.305 
14:50	63.7	63.7	63.7	39	38.3	3	9	112	0.00	30.305 
14:55	63.5	63.5	63.5	40	38.7	2	5	112	0.00	30.305 
15:00	64.0	64.0	64.0	42	40.4	1	9	22	0.00	30.304 
15:05	64.5	64.5	64.5	42	40.9	2	5	112	0.00	30.304 
15:10	64.8	64.8	64.8	41	40.5	2	6	112	0.00	30.304 
15:15	64.5	64.5	64.5	39	39.0	2	6	112	0.00	30.297 
15:20	64.3	64.3	64.3	40	39.5	2	7	112	0.00	30.297 
15:25	64.5	64.5	64.5	40	39.6	2	6	112	0.00	30.297 
15:30	64.5	64.5	64.5	41	40.3	3	7	90	0.00	30.292 
15:35	64.8	64.8	64.8	41	40.5	2	7	90	0.00	30.292 
15:40	64.5	64.5	64.5	42	40.9	1	4	112	0.00	30.292 
15:45	64.5	64.5	64.5	40	39.6	1	4	112	0.00	30.294 
15:50	64.7	64.7	64.7	41	40.5	1	4	112	0.00	30.294 
15:55	65.0	65.0	65.0	42	41.3	2	5	112	0.00	30.294 
16:00	65.0	65.0	65.0	40	40.1	1	3	112	0.00	30.292 
16:05	65.0	65.0	65.0	44	42.6	2	5	135	0.00	30.292 
16:10	65.2	65.2	65.2	40	40.3	0	3	90	0.00	30.292 
16:15	65.6	65.6	65.6	42	41.9	1	4	90	0.00	30.288 
16:20	65.6	65.6	65.6	41	41.3	1	5	68	0.00	30.288 
16:25	65.6	65.6	65.6	41	41.3	1	6	68	0.00	30.288 
16:30	65.8	65.8	65.8	43	42.7	0	3	68	0.00	30.281 
16:35	65.6	65.6	65.6	41	41.3	0	1	22	0.00	30.281 
16:40	65.8	65.8	65.8	40	40.8	1	4	90	0.00	30.281 
16:45	65.8	65.8	65.8	41	41.4	0	4	90	0.00	30.278 
16:50	66.0	66.0	66.0	43	42.9	1	3	45	0.00	30.278 
16:55	66.3	66.3	66.3	39	40.6	0	2	45	0.00	30.278 
17:00	66.4	66.4	66.4	40	41.3	0	2	315	0.00	30.278 
17:05	66.8	66.8	66.8	38	40.4	0	3	0	0.00	30.278 
17:10	66.9	66.9	66.9	40	41.8	1	4	22	0.00	30.278 
17:15	66.6	66.6	66.6	40	41.5	1	3	45	0.00	30.280 
17:20	66.3	66.3	66.3	42	42.5	1	6	112	0.00	30.280 
17:25	65.8	65.8	65.8	41	41.4	1	5	68	0.00	30.280 
17:30	65.2	65.2	65.2	41	40.9	1	4	112	0.00	30.283 
17:35	64.8	64.8	64.8	42	41.2	1	3	45	0.00	30.283 
17:40	64.5	64.5	64.5	42	40.9	0	1	45	0.00	30.283 
17:45	64.5	64.5	64.5	41	40.3	0	4	112	0.00	30.279 
17:50	64.3	64.3	64.3	41	40.1	1	4	112	0.00	30.279 
17:55	64.2	64.2	64.2	43	41.2	0	2	45	0.00	30.279 
18:00	64.0	64.0	64.0	42	40.4	0	2	45	0.00	30.281 
18:05	63.9	63.9	63.9	44	41.6	0	3	45	0.00	30.281 
18:10	63.7	63.7	63.7	44	41.4	0	3	90	0.00	30.281 
18:15	63.5	63.5	63.5	44	41.2	0	2	90	0.00	30.282 
18:20	63.5	63.5	63.5	44	41.2	1	5	90	0.00	30.282 
18:25	63.5	63.5	63.5	46	42.3	0	2	90	0.00	30.282 
18:30	63.4	63.4	63.4	46	42.3	0	1	90	0.00	30.286 
18:35	63.4	63.4	63.4	46	42.3	0	2	90	0.00	30.286 
18:40	63.4	63.4	63.4	46	42.3	0	2	90	0.00	30.286 
18:45	63.2	63.2	63.2	45	41.5	0	2	90	0.00	30.288 
18:50	63.2	63.2	63.2	46	42.1	0	1	90	0.00	30.288 
18:55	63.1	63.1	63.1	47	42.5	0	2	90	0.00	30.288 
19:00	63.1	63.1	63.1	46	42.0	1	5	90	0.00	30.281 
19:05	63.1	63.1	63.1	46	42.0	0	1	112	0.00	30.281 
19:10	63.1	63.1	63.1	46	42.0	0	1	112	0.00	30.281 
19:15	62.9	62.9	62.9	47	42.4	0	2	112	0.00	30.282 
19:20	62.6	62.6	62.6	46	41.5	0	2	112	0.00	30.282 
19:25	62.4	62.4	62.4	47	41.9	0	2	0	0.00	30.282 
19:30	62.1	62.1	62.1	48	42.2	0	1	0	0.00	30.284 
19:35	61.8	61.8	61.8	48	41.9	0	1	0	0.00	30.284 
19:40	61.5	61.5	61.5	49	42.2	0	2	0	0.00	30.284 
19:45	61.3	61.3	61.3	50	42.5	0	1	0	0.00	30.285 
19:50	61.0	61.0	61.0	50	42.2	0	1	0	0.00	30.285 
19:55	60.7	60.7	60.7	50	41.9	0	1	0	0.00	30.285 
20:00	60.5	60.5	60.5	50	41.8	0	1	0	0.00	30.294 
20:05	60.2	60.2	60.2	51	42.0	0	1	0	0.00	30.294 
20:10	59.9	59.9	59.9	51	41.7	0	1	0	0.00	30.294 
20:15	59.8	59.8	59.8	52	42.1	0	1	0	0.00	30.294 
20:20	59.6	59.6	59.6	52	42.0	0	0	---	0.00	30.294 
20:25	59.3	59.3	59.3	53	42.2	0	0	---	0.00	30.294 
20:30	59.0	59.0	59.0	53	41.9	0	1	0	0.00	30.298 
20:35	58.7	58.7	58.7	53	41.6	0	0	---	0.00	30.298 
20:40	58.4	58.4	58.4	54	41.8	0	0	---	0.00	30.298 
20:45	58.3	58.3	58.3	54	41.7	0	0	---	0.00	30.304 
20:50	58.0	58.0	58.0	54	41.4	0	0	---	0.00	30.304 
20:55	57.5	57.5	57.5	55	41.5	0	0	---	0.00	30.304 
21:00	57.2	57.2	57.2	56	41.6	0	0	---	0.00	30.307 
21:05	56.9	56.9	56.9	56	41.4	0	0	---	0.00	30.307 
21:10	56.6	56.6	56.6	57	41.5	0	0	---	0.00	30.307 
21:15	56.2	56.2	56.2	58	41.6	0	0	---	0.00	30.312 
21:20	55.7	55.7	55.7	59	41.6	0	0	---	0.00	30.312 
21:25	55.3	55.3	55.3	60	41.7	0	0	---	0.00	30.312 
21:30	54.8	54.8	54.8	60	41.2	0	0	---	0.00	30.314 
21:35	54.5	54.5	54.5	62	41.7	0	0	---	0.00	30.314 
21:40	54.1	54.1	54.1	62	41.4	0	0	---	0.00	30.314 
21:45	53.8	53.8	53.8	62	41.1	0	0	---	0.00	30.316 
21:50	53.5	53.5	53.5	63	41.2	0	0	---	0.00	30.316 
21:55	53.1	53.1	53.1	65	41.6	0	0	---	0.00	30.316 
22:00	52.8	52.8	52.8	66	41.8	0	0	---	0.00	30.319 
22:05	52.3	52.3	52.3	68	42.1	0	0	---	0.00	30.319 
22:10	52.0	52.0	52.0	68	41.8	0	0	---	0.00	30.319 
22:15	51.7	51.7	51.7	69	41.9	0	0	---	0.00	30.316 
22:20	51.3	51.3	51.3	70	41.9	0	0	---	0.00	30.316 
22:25	51.0	51.0	51.0	71	41.9	0	0	---	0.00	30.316 
22:30	50.8	50.8	50.8	73	42.5	0	0	---	0.00	30.319 
22:35	50.7	50.7	50.7	73	42.4	0	0	---	0.00	30.319 
22:40	50.4	50.4	50.4	74	42.4	0	0	---	0.00	30.319 
22:45	50.2	50.2	50.2	73	41.9	0	0	---	0.00	30.323 
22:50	50.1	50.1	50.1	74	42.1	0	0	---	0.00	30.323 
22:55	49.8	49.8	49.8	74	41.9	0	0	---	0.00	30.323 
23:00	49.6	49.6	49.6	75	42.0	0	0	---	0.00	30.325 
23:05	49.5	49.5	49.5	75	41.9	0	0	---	0.00	30.325 
23:10	49.4	49.4	49.4	75	41.8	0	0	---	0.00	30.325 
23:15	49.2	49.2	49.2	75	41.6	0	0	---	0.00	30.323 
23:20	49.1	49.1	49.1	75	41.5	0	0	---	0.00	30.323 
23:25	49.1	49.1	49.1	75	41.5	0	0	---	0.00	30.323 
23:30	48.9	48.9	48.9	75	41.3	0	0	---	0.00	30.322 
23:35	48.8	48.8	48.8	76	41.6	0	0	---	0.00	30.322 
23:40	48.8	48.8	48.8	76	41.6	0	0	---	0.00	30.322 
23:45	48.6	48.6	48.6	76	41.4	0	0	---	0.00	30.328 
23:50	48.5	48.5	48.5	77	41.6	0	0	---	0.00	30.328 
23:55	48.3	48.3	48.3	77	41.4	0	0	---	0.00	30.328 

CoCoRaHS
IN-AL-39
A2 Web Hosting
Creative Commons License
GoDaddy
search engine by freefind advanced

loaded 2018-11-12 14:44:02 • last modified 2010-11-18 10:43:29
Privacy PolicyDisclaimer
• wx.awcolley.com is powered by PmWiki v.2002016 •
• all content (unless otherwise noted) © 2018 A W Colley